Terminal Aerodrome Forecast
Issued by NWS

Home | Current Version | Previous Version | Text Only | Print | Product List | Glossary On
Versions: 1 2 3 4 5 6 7 8 9 10 11 12 13
000
FTPA31 PHFO 011125
TAFHKO
TAF
PHKO 011125Z 0112/0212 06004KT P6SM FEW050
     FM011900 21010KT P6SM FEW060
     FM020600 06005KT P6SM SCT050=

USA.gov is the U.S. government's official web portal to all federal, state and local government web resources and services.